sensor_id;sensor_type;location;lat;lon;timestamp;P1;durP1;ratioP1;P2;durP2;ratioP2
5147;SDS011;2592;48.140;7.614;2023-08-21T00:02:09;5.83;;;4.97;;
5147;SDS011;2592;48.140;7.614;2023-08-21T00:04:35;13.13;;;5.17;;
5147;SDS011;2592;48.140;7.614;2023-08-21T00:07:02;14.83;;;6.17;;
5147;SDS011;2592;48.140;7.614;2023-08-21T00:09:28;9.10;;;5.27;;
5147;SDS011;2592;48.140;7.614;2023-08-21T00:11:55;9.90;;;5.63;;
5147;SDS011;2592;48.140;7.614;2023-08-21T00:14:21;13.87;;;5.63;;
5147;SDS011;2592;48.140;7.614;2023-08-21T00:16:47;6.77;;;5.63;;
5147;SDS011;2592;48.140;7.614;2023-08-21T00:19:15;9.17;;;5.53;;
5147;SDS011;2592;48.140;7.614;2023-08-21T00:21:42;8.70;;;5.80;;
5147;SDS011;2592;48.140;7.614;2023-08-21T00:24:08;11.67;;;6.00;;
5147;SDS011;2592;48.140;7.614;2023-08-21T00:26:34;8.00;;;5.57;;
5147;SDS011;2592;48.140;7.614;2023-08-21T00:29:01;7.63;;;6.00;;
5147;SDS011;2592;48.140;7.614;2023-08-21T00:31:27;6.47;;;5.87;;
5147;SDS011;2592;48.140;7.614;2023-08-21T00:33:54;6.03;;;4.90;;
5147;SDS011;2592;48.140;7.614;2023-08-21T00:36:21;8.43;;;4.80;;
5147;SDS011;2592;48.140;7.614;2023-08-21T00:38:48;9.07;;;6.20;;
5147;SDS011;2592;48.140;7.614;2023-08-21T00:41:14;7.67;;;5.87;;
5147;SDS011;2592;48.140;7.614;2023-08-21T00:43:41;7.63;;;5.40;;
5147;SDS011;2592;48.140;7.614;2023-08-21T00:46:07;5.93;;;5.27;;
5147;SDS011;2592;48.140;7.614;2023-08-21T00:48:34;8.57;;;5.67;;
5147;SDS011;2592;48.140;7.614;2023-08-21T00:51:00;11.07;;;6.20;;
5147;SDS011;2592;48.140;7.614;2023-08-21T00:53:28;10.90;;;5.90;;
5147;SDS011;2592;48.140;7.614;2023-08-21T00:55:54;6.33;;;5.43;;
5147;SDS011;2592;48.140;7.614;2023-08-21T00:58:21;8.63;;;5.60;;
5147;SDS011;2592;48.140;7.614;2023-08-21T01:00:48;7.30;;;5.97;;
5147;SDS011;2592;48.140;7.614;2023-08-21T01:03:15;6.07;;;5.47;;
5147;SDS011;2592;48.140;7.614;2023-08-21T01:05:41;9.57;;;6.50;;
5147;SDS011;2592;48.140;7.614;2023-08-21T01:08:09;8.57;;;6.23;;
5147;SDS011;2592;48.140;7.614;2023-08-21T01:10:42;10.13;;;6.17;;
5147;SDS011;2592;48.140;7.614;2023-08-21T01:13:11;7.00;;;6.00;;
5147;SDS011;2592;48.140;7.614;2023-08-21T01:15:40;8.23;;;6.20;;
5147;SDS011;2592;48.140;7.614;2023-08-21T01:18:07;17.70;;;6.70;;
5147;SDS011;2592;48.140;7.614;2023-08-21T01:20:34;12.27;;;6.43;;
5147;SDS011;2592;48.140;7.614;2023-08-21T01:23:03;11.23;;;6.93;;
5147;SDS011;2592;48.140;7.614;2023-08-21T01:25:31;7.23;;;5.70;;
5147;SDS011;2592;48.140;7.614;2023-08-21T01:27:58;12.13;;;6.20;;
5147;SDS011;2592;48.140;7.614;2023-08-21T01:30:25;9.40;;;6.53;;
5147;SDS011;2592;48.140;7.614;2023-08-21T01:33:02;9.20;;;6.53;;
5147;SDS011;2592;48.140;7.614;2023-08-21T01:35:30;8.17;;;5.90;;
5147;SDS011;2592;48.140;7.614;2023-08-21T01:37:57;9.80;;;6.33;;
5147;SDS011;2592;48.140;7.614;2023-08-21T01:40:24;8.83;;;6.60;;
5147;SDS011;2592;48.140;7.614;2023-08-21T01:42:53;8.93;;;5.70;;
5147;SDS011;2592;48.140;7.614;2023-08-21T01:45:20;6.17;;;5.33;;
5147;SDS011;2592;48.140;7.614;2023-08-21T01:47:46;12.80;;;5.60;;
5147;SDS011;2592;48.140;7.614;2023-08-21T01:50:13;7.60;;;5.80;;
5147;SDS011;2592;48.140;7.614;2023-08-21T01:52:39;7.53;;;6.07;;
5147;SDS011;2592;48.140;7.614;2023-08-21T01:55:06;9.03;;;6.20;;
5147;SDS011;2592;48.140;7.614;2023-08-21T01:57:33;11.47;;;5.90;;
5147;SDS011;2592;48.140;7.614;2023-08-21T02:00:01;10.27;;;6.37;;
5147;SDS011;2592;48.140;7.614;2023-08-21T02:02:28;7.60;;;6.03;;
5147;SDS011;2592;48.140;7.614;2023-08-21T02:04:54;9.23;;;6.63;;
5147;SDS011;2592;48.140;7.614;2023-08-21T02:07:21;9.30;;;7.00;;
5147;SDS011;2592;48.140;7.614;2023-08-21T02:09:47;7.83;;;6.13;;
5147;SDS011;2592;48.140;7.614;2023-08-21T02:12:13;7.20;;;6.30;;
5147;SDS011;2592;48.140;7.614;2023-08-21T02:14:40;8.53;;;6.17;;
5147;SDS011;2592;48.140;7.614;2023-08-21T02:17:08;9.50;;;5.90;;
5147;SDS011;2592;48.140;7.614;2023-08-21T02:19:34;7.60;;;5.80;;
5147;SDS011;2592;48.140;7.614;2023-08-21T02:22:01;7.70;;;6.07;;
5147;SDS011;2592;48.140;7.614;2023-08-21T02:24:27;11.37;;;6.40;;
5147;SDS011;2592;48.140;7.614;2023-08-21T02:26:54;8.07;;;5.87;;
5147;SDS011;2592;48.140;7.614;2023-08-21T02:29:20;13.27;;;5.70;;
5147;SDS011;2592;48.140;7.614;2023-08-21T02:31:46;8.90;;;6.20;;
5147;SDS011;2592;48.140;7.614;2023-08-21T02:34:14;7.50;;;6.43;;
5147;SDS011;2592;48.140;7.614;2023-08-21T02:36:41;10.43;;;5.67;;
5147;SDS011;2592;48.140;7.614;2023-08-21T02:39:07;8.57;;;6.10;;
5147;SDS011;2592;48.140;7.614;2023-08-21T02:41:33;7.40;;;6.23;;
5147;SDS011;2592;48.140;7.614;2023-08-21T02:44:01;11.30;;;6.70;;
5147;SDS011;2592;48.140;7.614;2023-08-21T02:46:27;9.93;;;6.30;;
5147;SDS011;2592;48.140;7.614;2023-08-21T02:48:54;8.50;;;6.20;;
5147;SDS011;2592;48.140;7.614;2023-08-21T02:51:22;6.97;;;5.97;;
5147;SDS011;2592;48.140;7.614;2023-08-21T02:53:48;11.43;;;6.50;;
5147;SDS011;2592;48.140;7.614;2023-08-21T02:56:14;13.83;;;5.50;;
5147;SDS011;2592;48.140;7.614;2023-08-21T02:58:41;7.40;;;6.10;;
5147;SDS011;2592;48.140;7.614;2023-08-21T03:01:07;11.77;;;6.40;;
5147;SDS011;2592;48.140;7.614;2023-08-21T03:03:34;9.20;;;5.77;;
5147;SDS011;2592;48.140;7.614;2023-08-21T03:06:01;10.03;;;7.10;;
5147;SDS011;2592;48.140;7.614;2023-08-21T03:08:28;9.73;;;6.10;;
5147;SDS011;2592;48.140;7.614;2023-08-21T03:10:55;11.50;;;5.93;;
5147;SDS011;2592;48.140;7.614;2023-08-21T03:13:21;14.17;;;6.97;;
5147;SDS011;2592;48.140;7.614;2023-08-21T03:15:48;8.37;;;5.70;;
5147;SDS011;2592;48.140;7.614;2023-08-21T03:18:14;11.47;;;6.23;;
5147;SDS011;2592;48.140;7.614;2023-08-21T03:20:43;12.10;;;5.93;;
5147;SDS011;2592;48.140;7.614;2023-08-21T03:23:10;6.97;;;5.87;;
5147;SDS011;2592;48.140;7.614;2023-08-21T03:25:37;9.50;;;6.20;;
5147;SDS011;2592;48.140;7.614;2023-08-21T03:28:04;8.20;;;6.23;;
5147;SDS011;2592;48.140;7.614;2023-08-21T03:30:30;9.37;;;6.63;;
5147;SDS011;2592;48.140;7.614;2023-08-21T03:32:57;7.77;;;6.20;;
5147;SDS011;2592;48.140;7.614;2023-08-21T03:35:23;10.77;;;7.03;;
5147;SDS011;2592;48.140;7.614;2023-08-21T03:37:50;11.43;;;6.90;;
5147;SDS011;2592;48.140;7.614;2023-08-21T03:40:16;10.27;;;6.70;;
5147;SDS011;2592;48.140;7.614;2023-08-21T03:42:44;11.27;;;6.43;;
5147;SDS011;2592;48.140;7.614;2023-08-21T03:45:10;8.80;;;6.90;;
5147;SDS011;2592;48.140;7.614;2023-08-21T03:47:37;14.50;;;6.40;;
5147;SDS011;2592;48.140;7.614;2023-08-21T03:50:04;8.83;;;6.30;;
5147;SDS011;2592;48.140;7.614;2023-08-21T03:52:30;7.80;;;6.30;;
5147;SDS011;2592;48.140;7.614;2023-08-21T03:54:56;7.93;;;6.50;;
5147;SDS011;2592;48.140;7.614;2023-08-21T03:57:23;11.37;;;8.10;;
5147;SDS011;2592;48.140;7.614;2023-08-21T03:59:51;7.30;;;6.07;;
5147;SDS011;2592;48.140;7.614;2023-08-21T04:02:17;11.50;;;7.00;;
5147;SDS011;2592;48.140;7.614;2023-08-21T04:04:43;10.53;;;7.77;;
5147;SDS011;2592;48.140;7.614;2023-08-21T04:07:10;7.90;;;6.67;;
5147;SDS011;2592;48.140;7.614;2023-08-21T04:09:36;10.17;;;6.80;;
5147;SDS011;2592;48.140;7.614;2023-08-21T04:12:03;9.30;;;6.17;;
5147;SDS011;2592;48.140;7.614;2023-08-21T04:14:29;8.97;;;6.30;;
5147;SDS011;2592;48.140;7.614;2023-08-21T04:16:57;9.97;;;7.70;;
5147;SDS011;2592;48.140;7.614;2023-08-21T04:19:24;10.40;;;6.07;;
5147;SDS011;2592;48.140;7.614;2023-08-21T04:21:55;10.70;;;7.20;;
5147;SDS011;2592;48.140;7.614;2023-08-21T04:24:21;11.03;;;6.97;;
5147;SDS011;2592;48.140;7.614;2023-08-21T04:26:47;9.63;;;6.30;;
5147;SDS011;2592;48.140;7.614;2023-08-21T04:29:14;12.83;;;6.70;;
5147;SDS011;2592;48.140;7.614;2023-08-21T04:31:40;7.17;;;5.97;;
5147;SDS011;2592;48.140;7.614;2023-08-21T04:34:08;13.43;;;7.20;;
5147;SDS011;2592;48.140;7.614;2023-08-21T04:36:34;18.20;;;7.93;;
5147;SDS011;2592;48.140;7.614;2023-08-21T04:39:01;8.27;;;6.80;;
5147;SDS011;2592;48.140;7.614;2023-08-21T04:41:28;9.37;;;7.00;;
5147;SDS011;2592;48.140;7.614;2023-08-21T04:43:54;10.10;;;7.10;;
5147;SDS011;2592;48.140;7.614;2023-08-21T04:46:21;9.93;;;7.10;;
5147;SDS011;2592;48.140;7.614;2023-08-21T04:48:47;7.90;;;6.33;;
5147;SDS011;2592;48.140;7.614;2023-08-21T04:51:15;15.20;;;7.37;;
5147;SDS011;2592;48.140;7.614;2023-08-21T04:53:41;12.20;;;7.80;;
5147;SDS011;2592;48.140;7.614;2023-08-21T04:56:08;14.97;;;7.93;;
5147;SDS011;2592;48.140;7.614;2023-08-21T04:58:34;19.90;;;8.20;;
5147;SDS011;2592;48.140;7.614;2023-08-21T05:01:00;10.27;;;7.40;;
5147;SDS011;2592;48.140;7.614;2023-08-21T05:03:27;9.57;;;7.53;;
5147;SDS011;2592;48.140;7.614;2023-08-21T05:05:53;11.27;;;8.13;;
5147;SDS011;2592;48.140;7.614;2023-08-21T05:08:24;14.60;;;7.00;;
5147;SDS011;2592;48.140;7.614;2023-08-21T05:10:54;11.80;;;6.90;;
5147;SDS011;2592;48.140;7.614;2023-08-21T05:13:20;12.57;;;8.53;;
5147;SDS011;2592;48.140;7.614;2023-08-21T05:15:50;10.47;;;7.17;;
5147;SDS011;2592;48.140;7.614;2023-08-21T05:18:17;9.03;;;7.20;;
5147;SDS011;2592;48.140;7.614;2023-08-21T05:20:43;12.57;;;7.23;;
5147;SDS011;2592;48.140;7.614;2023-08-21T05:23:10;12.37;;;6.77;;
5147;SDS011;2592;48.140;7.614;2023-08-21T05:25:38;9.57;;;5.83;;
5147;SDS011;2592;48.140;7.614;2023-08-21T05:28:05;9.30;;;6.80;;
5147;SDS011;2592;48.140;7.614;2023-08-21T05:30:31;8.63;;;7.00;;
5147;SDS011;2592;48.140;7.614;2023-08-21T05:32:58;10.47;;;6.23;;
5147;SDS011;2592;48.140;7.614;2023-08-21T05:35:24;11.60;;;6.80;;
5147;SDS011;2592;48.140;7.614;2023-08-21T05:37:51;7.93;;;5.67;;
5147;SDS011;2592;48.140;7.614;2023-08-21T05:40:17;10.77;;;6.50;;
5147;SDS011;2592;48.140;7.614;2023-08-21T05:42:45;11.40;;;7.70;;
5147;SDS011;2592;48.140;7.614;2023-08-21T05:45:11;10.50;;;6.10;;
5147;SDS011;2592;48.140;7.614;2023-08-21T05:47:38;15.07;;;6.33;;
5147;SDS011;2592;48.140;7.614;2023-08-21T05:50:05;15.90;;;7.97;;
5147;SDS011;2592;48.140;7.614;2023-08-21T05:52:31;8.80;;;5.80;;
5147;SDS011;2592;48.140;7.614;2023-08-21T05:54:57;9.37;;;6.33;;
5147;SDS011;2592;48.140;7.614;2023-08-21T05:57:24;9.80;;;5.80;;
5147;SDS011;2592;48.140;7.614;2023-08-21T05:59:52;12.63;;;6.90;;
5147;SDS011;2592;48.140;7.614;2023-08-21T06:02:18;10.87;;;7.00;;
5147;SDS011;2592;48.140;7.614;2023-08-21T06:04:45;8.83;;;6.30;;
5147;SDS011;2592;48.140;7.614;2023-08-21T06:07:11;11.97;;;6.90;;
5147;SDS011;2592;48.140;7.614;2023-08-21T06:09:37;13.33;;;7.93;;
5147;SDS011;2592;48.140;7.614;2023-08-21T06:12:04;8.13;;;6.30;;
5147;SDS011;2592;48.140;7.614;2023-08-21T06:14:31;7.97;;;6.20;;
5147;SDS011;2592;48.140;7.614;2023-08-21T06:16:59;10.77;;;6.87;;
5147;SDS011;2592;48.140;7.614;2023-08-21T06:19:26;9.10;;;6.30;;
5147;SDS011;2592;48.140;7.614;2023-08-21T06:21:52;14.10;;;7.23;;
5147;SDS011;2592;48.140;7.614;2023-08-21T06:24:19;12.43;;;7.00;;
5147;SDS011;2592;48.140;7.614;2023-08-21T06:26:45;8.00;;;6.83;;
5147;SDS011;2592;48.140;7.614;2023-08-21T06:29:12;9.73;;;6.37;;
5147;SDS011;2592;48.140;7.614;2023-08-21T06:31:38;12.60;;;7.30;;
5147;SDS011;2592;48.140;7.614;2023-08-21T06:34:06;10.27;;;6.67;;
5147;SDS011;2592;48.140;7.614;2023-08-21T06:36:32;8.40;;;6.53;;
5147;SDS011;2592;48.140;7.614;2023-08-21T06:38:59;11.73;;;7.90;;
5147;SDS011;2592;48.140;7.614;2023-08-21T06:41:25;14.10;;;7.30;;
5147;SDS011;2592;48.140;7.614;2023-08-21T06:43:52;14.13;;;6.90;;
5147;SDS011;2592;48.140;7.614;2023-08-21T06:46:18;9.50;;;7.80;;
5147;SDS011;2592;48.140;7.614;2023-08-21T06:48:45;13.60;;;7.50;;
5147;SDS011;2592;48.140;7.614;2023-08-21T06:51:13;9.10;;;7.00;;
5147;SDS011;2592;48.140;7.614;2023-08-21T06:53:39;10.80;;;7.07;;
5147;SDS011;2592;48.140;7.614;2023-08-21T06:56:06;13.10;;;7.53;;
5147;SDS011;2592;48.140;7.614;2023-08-21T06:58:32;25.37;;;7.67;;
5147;SDS011;2592;48.140;7.614;2023-08-21T07:00:59;10.77;;;8.40;;
5147;SDS011;2592;48.140;7.614;2023-08-21T07:03:26;9.07;;;7.60;;
5147;SDS011;2592;48.140;7.614;2023-08-21T07:05:55;12.20;;;7.23;;
5147;SDS011;2592;48.140;7.614;2023-08-21T07:08:23;9.40;;;7.40;;
5147;SDS011;2592;48.140;7.614;2023-08-21T07:10:50;9.13;;;7.27;;
5147;SDS011;2592;48.140;7.614;2023-08-21T07:13:17;9.37;;;7.67;;
5147;SDS011;2592;48.140;7.614;2023-08-21T07:15:43;13.27;;;7.60;;
5147;SDS011;2592;48.140;7.614;2023-08-21T07:18:10;9.70;;;6.90;;
5147;SDS011;2592;48.140;7.614;2023-08-21T07:20:36;10.53;;;7.43;;
5147;SDS011;2592;48.140;7.614;2023-08-21T07:23:03;13.67;;;7.30;;
5147;SDS011;2592;48.140;7.614;2023-08-21T07:25:31;9.57;;;7.83;;
5147;SDS011;2592;48.140;7.614;2023-08-21T07:27:57;10.83;;;8.13;;
5147;SDS011;2592;48.140;7.614;2023-08-21T07:30:23;12.70;;;7.67;;
5147;SDS011;2592;48.140;7.614;2023-08-21T07:32:50;19.23;;;8.47;;
5147;SDS011;2592;48.140;7.614;2023-08-21T07:35:16;11.97;;;9.20;;
5147;SDS011;2592;48.140;7.614;2023-08-21T07:37:43;17.07;;;11.67;;
5147;SDS011;2592;48.140;7.614;2023-08-21T07:40:10;34.23;;;12.10;;
5147;SDS011;2592;48.140;7.614;2023-08-21T07:42:38;14.47;;;10.27;;
5147;SDS011;2592;48.140;7.614;2023-08-21T07:45:05;12.63;;;8.60;;
5147;SDS011;2592;48.140;7.614;2023-08-21T07:47:32;9.83;;;7.70;;
5147;SDS011;2592;48.140;7.614;2023-08-21T07:49:58;14.63;;;8.57;;
5147;SDS011;2592;48.140;7.614;2023-08-21T07:52:24;14.00;;;8.70;;
5147;SDS011;2592;48.140;7.614;2023-08-21T07:54:51;9.50;;;7.50;;
5147;SDS011;2592;48.140;7.614;2023-08-21T07:57:17;8.70;;;7.80;;
5147;SDS011;2592;48.140;7.614;2023-08-21T07:59:45;11.37;;;7.97;;
5147;SDS011;2592;48.140;7.614;2023-08-21T08:02:12;11.10;;;7.70;;
5147;SDS011;2592;48.140;7.614;2023-08-21T08:04:39;13.43;;;8.30;;
5147;SDS011;2592;48.140;7.614;2023-08-21T08:07:05;15.87;;;8.10;;
5147;SDS011;2592;48.140;7.614;2023-08-21T08:09:31;9.57;;;8.17;;
5147;SDS011;2592;48.140;7.614;2023-08-21T08:11:58;23.03;;;13.13;;
5147;SDS011;2592;48.140;7.614;2023-08-21T08:14:24;24.57;;;14.17;;
5147;SDS011;2592;48.140;7.614;2023-08-21T08:16:52;11.07;;;9.43;;
5147;SDS011;2592;48.140;7.614;2023-08-21T08:19:18;17.57;;;9.33;;
5147;SDS011;2592;48.140;7.614;2023-08-21T08:21:45;12.03;;;9.10;;
5147;SDS011;2592;48.140;7.614;2023-08-21T08:24:12;18.93;;;10.83;;
5147;SDS011;2592;48.140;7.614;2023-08-21T08:26:38;9.80;;;8.80;;
5147;SDS011;2592;48.140;7.614;2023-08-21T08:29:05;11.47;;;7.97;;
5147;SDS011;2592;48.140;7.614;2023-08-21T08:31:32;10.03;;;7.83;;
5147;SDS011;2592;48.140;7.614;2023-08-21T08:34:00;12.80;;;8.40;;
5147;SDS011;2592;48.140;7.614;2023-08-21T08:36:26;10.13;;;7.80;;
5147;SDS011;2592;48.140;7.614;2023-08-21T08:38:53;11.93;;;7.90;;
5147;SDS011;2592;48.140;7.614;2023-08-21T08:41:24;10.73;;;7.50;;
5147;SDS011;2592;48.140;7.614;2023-08-21T08:43:53;12.93;;;8.40;;
5147;SDS011;2592;48.140;7.614;2023-08-21T08:46:22;15.70;;;7.37;;
5147;SDS011;2592;48.140;7.614;2023-08-21T08:48:49;16.73;;;8.30;;
5147;SDS011;2592;48.140;7.614;2023-08-21T08:51:17;10.50;;;8.20;;
5147;SDS011;2592;48.140;7.614;2023-08-21T08:53:44;8.23;;;7.40;;
5147;SDS011;2592;48.140;7.614;2023-08-21T08:56:11;16.07;;;7.93;;
5147;SDS011;2592;48.140;7.614;2023-08-21T08:58:37;9.37;;;7.10;;
5147;SDS011;2592;48.140;7.614;2023-08-21T09:01:04;12.23;;;7.53;;
5147;SDS011;2592;48.140;7.614;2023-08-21T09:03:31;12.03;;;7.73;;
5147;SDS011;2592;48.140;7.614;2023-08-21T09:05:57;14.10;;;8.37;;
5147;SDS011;2592;48.140;7.614;2023-08-21T09:08:26;11.07;;;7.53;;
5147;SDS011;2592;48.140;7.614;2023-08-21T09:10:53;14.13;;;7.20;;
5147;SDS011;2592;48.140;7.614;2023-08-21T09:13:20;8.93;;;7.47;;
5147;SDS011;2592;48.140;7.614;2023-08-21T09:15:47;9.33;;;6.70;;
5147;SDS011;2592;48.140;7.614;2023-08-21T09:18:14;8.97;;;6.63;;
5147;SDS011;2592;48.140;7.614;2023-08-21T09:20:41;8.23;;;7.07;;
5147;SDS011;2592;48.140;7.614;2023-08-21T09:23:07;18.73;;;8.20;;
5147;SDS011;2592;48.140;7.614;2023-08-21T09:25:35;11.70;;;7.30;;
5147;SDS011;2592;48.140;7.614;2023-08-21T09:28:03;11.93;;;7.00;;
5147;SDS011;2592;48.140;7.614;2023-08-21T09:30:32;9.97;;;6.97;;
5147;SDS011;2592;48.140;7.614;2023-08-21T09:33:09;9.43;;;7.50;;
5147;SDS011;2592;48.140;7.614;2023-08-21T09:35:35;7.70;;;6.37;;
5147;SDS011;2592;48.140;7.614;2023-08-21T09:38:02;10.70;;;7.70;;
5147;SDS011;2592;48.140;7.614;2023-08-21T09:40:30;14.03;;;8.20;;
5147;SDS011;2592;48.140;7.614;2023-08-21T09:42:57;8.17;;;6.50;;
5147;SDS011;2592;48.140;7.614;2023-08-21T09:45:24;9.30;;;7.20;;
5147;SDS011;2592;48.140;7.614;2023-08-21T09:47:52;13.57;;;10.60;;
5147;SDS011;2592;48.140;7.614;2023-08-21T09:50:19;12.30;;;7.87;;
5147;SDS011;2592;48.140;7.614;2023-08-21T09:52:45;17.90;;;7.53;;
5147;SDS011;2592;48.140;7.614;2023-08-21T09:55:13;24.30;;;7.97;;
5147;SDS011;2592;48.140;7.614;2023-08-21T09:57:40;9.23;;;7.47;;
5147;SDS011;2592;48.140;7.614;2023-08-21T10:00:09;7.17;;;5.63;;
5147;SDS011;2592;48.140;7.614;2023-08-21T10:02:41;8.20;;;6.17;;
5147;SDS011;2592;48.140;7.614;2023-08-21T10:05:08;9.87;;;6.33;;
5147;SDS011;2592;48.140;7.614;2023-08-21T10:07:35;8.17;;;6.03;;
5147;SDS011;2592;48.140;7.614;2023-08-21T10:10:02;11.00;;;5.97;;
5147;SDS011;2592;48.140;7.614;2023-08-21T10:12:28;7.80;;;7.00;;
5147;SDS011;2592;48.140;7.614;2023-08-21T10:14:55;11.90;;;6.20;;
5147;SDS011;2592;48.140;7.614;2023-08-21T10:17:23;7.80;;;6.27;;
5147;SDS011;2592;48.140;7.614;2023-08-21T10:19:50;10.23;;;7.10;;
5147;SDS011;2592;48.140;7.614;2023-08-21T10:22:20;15.17;;;6.67;;
5147;SDS011;2592;48.140;7.614;2023-08-21T10:25:01;14.50;;;7.10;;
5147;SDS011;2592;48.140;7.614;2023-08-21T10:27:29;7.30;;;6.20;;
5147;SDS011;2592;48.140;7.614;2023-08-21T10:29:58;9.63;;;6.63;;
5147;SDS011;2592;48.140;7.614;2023-08-21T10:32:26;7.30;;;5.50;;
5147;SDS011;2592;48.140;7.614;2023-08-21T10:34:52;9.90;;;6.40;;
5147;SDS011;2592;48.140;7.614;2023-08-21T10:37:19;7.63;;;6.10;;
5147;SDS011;2592;48.140;7.614;2023-08-21T10:39:55;7.70;;;6.13;;
5147;SDS011;2592;48.140;7.614;2023-08-21T10:42:36;11.20;;;6.47;;
5147;SDS011;2592;48.140;7.614;2023-08-21T10:45:09;11.60;;;6.57;;
5147;SDS011;2592;48.140;7.614;2023-08-21T10:47:37;6.80;;;6.10;;
5147;SDS011;2592;48.140;7.614;2023-08-21T10:50:04;8.00;;;5.97;;
5147;SDS011;2592;48.140;7.614;2023-08-21T10:52:34;11.20;;;6.20;;
5147;SDS011;2592;48.140;7.614;2023-08-21T10:55:01;10.20;;;6.67;;
5147;SDS011;2592;48.140;7.614;2023-08-21T10:57:29;8.37;;;6.30;;
5147;SDS011;2592;48.140;7.614;2023-08-21T10:59:57;11.20;;;6.37;;
5147;SDS011;2592;48.140;7.614;2023-08-21T11:02:24;10.80;;;6.33;;
5147;SDS011;2592;48.140;7.614;2023-08-21T11:04:52;8.43;;;5.80;;
5147;SDS011;2592;48.140;7.614;2023-08-21T11:07:19;7.23;;;5.00;;
5147;SDS011;2592;48.140;7.614;2023-08-21T11:09:46;10.90;;;6.03;;
5147;SDS011;2592;48.140;7.614;2023-08-21T11:12:13;15.30;;;5.50;;
5147;SDS011;2592;48.140;7.614;2023-08-21T11:14:40;8.50;;;5.23;;
5147;SDS011;2592;48.140;7.614;2023-08-21T11:17:06;8.97;;;5.10;;
5147;SDS011;2592;48.140;7.614;2023-08-21T11:19:33;11.20;;;5.10;;
5147;SDS011;2592;48.140;7.614;2023-08-21T11:22:02;5.23;;;4.70;;
5147;SDS011;2592;48.140;7.614;2023-08-21T11:24:31;10.00;;;5.87;;
5147;SDS011;2592;48.140;7.614;2023-08-21T11:26:57;8.03;;;5.40;;
5147;SDS011;2592;48.140;7.614;2023-08-21T11:29:24;12.13;;;5.53;;
5147;SDS011;2592;48.140;7.614;2023-08-21T11:31:51;8.53;;;5.67;;
5147;SDS011;2592;48.140;7.614;2023-08-21T11:34:18;5.93;;;5.33;;
5147;SDS011;2592;48.140;7.614;2023-08-21T11:36:44;12.30;;;5.70;;
5147;SDS011;2592;48.140;7.614;2023-08-21T11:39:12;7.00;;;5.43;;
5147;SDS011;2592;48.140;7.614;2023-08-21T11:41:52;6.17;;;5.27;;
5147;SDS011;2592;48.140;7.614;2023-08-21T11:44:18;9.73;;;4.90;;
5147;SDS011;2592;48.140;7.614;2023-08-21T11:46:45;5.97;;;4.97;;
5147;SDS011;2592;48.140;7.614;2023-08-21T11:49:11;6.93;;;5.03;;
5147;SDS011;2592;48.140;7.614;2023-08-21T11:51:38;15.20;;;5.10;;
5147;SDS011;2592;48.140;7.614;2023-08-21T11:54:05;8.60;;;5.73;;
5147;SDS011;2592;48.140;7.614;2023-08-21T11:56:33;6.40;;;5.20;;
5147;SDS011;2592;48.140;7.614;2023-08-21T11:59:01;6.73;;;5.63;;
5147;SDS011;2592;48.140;7.614;2023-08-21T12:01:32;6.47;;;4.83;;
5147;SDS011;2592;48.140;7.614;2023-08-21T12:03:59;5.57;;;4.70;;
5147;SDS011;2592;48.140;7.614;2023-08-21T12:06:25;11.37;;;5.53;;
5147;SDS011;2592;48.140;7.614;2023-08-21T12:08:57;4.83;;;4.33;;
5147;SDS011;2592;48.140;7.614;2023-08-21T12:11:23;8.10;;;4.60;;
5147;SDS011;2592;48.140;7.614;2023-08-21T12:13:51;8.17;;;4.80;;
5147;SDS011;2592;48.140;7.614;2023-08-21T12:16:18;6.10;;;3.80;;
5147;SDS011;2592;48.140;7.614;2023-08-21T12:18:45;9.50;;;4.93;;
5147;SDS011;2592;48.140;7.614;2023-08-21T12:21:11;7.80;;;5.23;;
5147;SDS011;2592;48.140;7.614;2023-08-21T12:23:38;12.97;;;4.60;;
5147;SDS011;2592;48.140;7.614;2023-08-21T12:26:04;8.90;;;4.67;;
5147;SDS011;2592;48.140;7.614;2023-08-21T12:28:31;8.43;;;5.40;;
5147;SDS011;2592;48.140;7.614;2023-08-21T12:30:58;6.20;;;5.00;;
5147;SDS011;2592;48.140;7.614;2023-08-21T12:33:25;9.03;;;5.10;;
5147;SDS011;2592;48.140;7.614;2023-08-21T12:35:51;13.10;;;4.80;;
5147;SDS011;2592;48.140;7.614;2023-08-21T12:38:18;11.43;;;5.00;;
5147;SDS011;2592;48.140;7.614;2023-08-21T12:40:45;6.00;;;4.60;;
5147;SDS011;2592;48.140;7.614;2023-08-21T12:43:11;5.83;;;4.90;;
5147;SDS011;2592;48.140;7.614;2023-08-21T12:45:38;9.97;;;4.80;;
5147;SDS011;2592;48.140;7.614;2023-08-21T12:48:06;8.83;;;4.53;;
5147;SDS011;2592;48.140;7.614;2023-08-21T12:50:33;8.43;;;4.63;;
5147;SDS011;2592;48.140;7.614;2023-08-21T12:52:59;10.13;;;4.53;;
5147;SDS011;2592;48.140;7.614;2023-08-21T12:55:26;17.60;;;5.10;;
5147;SDS011;2592;48.140;7.614;2023-08-21T12:57:52;5.90;;;4.67;;
5147;SDS011;2592;48.140;7.614;2023-08-21T13:00:19;10.87;;;5.13;;
5147;SDS011;2592;48.140;7.614;2023-08-21T13:02:45;6.80;;;4.17;;
5147;SDS011;2592;48.140;7.614;2023-08-21T13:05:13;7.70;;;4.57;;
5147;SDS011;2592;48.140;7.614;2023-08-21T13:07:40;8.20;;;4.87;;
5147;SDS011;2592;48.140;7.614;2023-08-21T13:10:07;8.20;;;4.90;;
5147;SDS011;2592;48.140;7.614;2023-08-21T13:12:34;7.00;;;4.10;;
5147;SDS011;2592;48.140;7.614;2023-08-21T13:15:00;5.30;;;4.50;;
5147;SDS011;2592;48.140;7.614;2023-08-21T13:17:26;9.33;;;4.80;;
5147;SDS011;2592;48.140;7.614;2023-08-21T13:19:53;11.20;;;4.10;;
5147;SDS011;2592;48.140;7.614;2023-08-21T13:22:21;5.00;;;4.43;;
5147;SDS011;2592;48.140;7.614;2023-08-21T13:24:47;18.03;;;4.43;;
5147;SDS011;2592;48.140;7.614;2023-08-21T13:27:13;7.70;;;4.80;;
5147;SDS011;2592;48.140;7.614;2023-08-21T13:29:40;6.50;;;4.50;;
5147;SDS011;2592;48.140;7.614;2023-08-21T13:32:06;6.17;;;4.67;;
5147;SDS011;2592;48.140;7.614;2023-08-21T13:34:33;10.60;;;4.60;;
5147;SDS011;2592;48.140;7.614;2023-08-21T13:36:59;8.97;;;5.10;;
5147;SDS011;2592;48.140;7.614;2023-08-21T13:39:27;9.30;;;3.93;;
5147;SDS011;2592;48.140;7.614;2023-08-21T13:41:53;10.00;;;4.90;;
5147;SDS011;2592;48.140;7.614;2023-08-21T13:44:20;6.60;;;4.23;;
5147;SDS011;2592;48.140;7.614;2023-08-21T13:46:46;14.33;;;4.33;;
5147;SDS011;2592;48.140;7.614;2023-08-21T13:49:13;11.90;;;4.90;;
5147;SDS011;2592;48.140;7.614;2023-08-21T13:51:39;9.87;;;5.03;;
5147;SDS011;2592;48.140;7.614;2023-08-21T13:54:06;8.60;;;4.83;;
5147;SDS011;2592;48.140;7.614;2023-08-21T13:56:33;13.30;;;5.43;;
5147;SDS011;2592;48.140;7.614;2023-08-21T13:59:00;6.13;;;4.63;;
5147;SDS011;2592;48.140;7.614;2023-08-21T14:01:27;4.93;;;4.43;;
5147;SDS011;2592;48.140;7.614;2023-08-21T14:03:53;5.20;;;4.33;;
5147;SDS011;2592;48.140;7.614;2023-08-21T14:06:20;9.63;;;5.07;;
5147;SDS011;2592;48.140;7.614;2023-08-21T14:08:46;8.67;;;4.90;;
5147;SDS011;2592;48.140;7.614;2023-08-21T14:11:13;6.53;;;4.50;;
5147;SDS011;2592;48.140;7.614;2023-08-21T14:13:40;8.43;;;4.20;;
5147;SDS011;2592;48.140;7.614;2023-08-21T14:16:07;10.10;;;4.23;;
5147;SDS011;2592;48.140;7.614;2023-08-21T14:18:33;8.60;;;4.10;;
5147;SDS011;2592;48.140;7.614;2023-08-21T14:21:00;8.83;;;4.57;;
5147;SDS011;2592;48.140;7.614;2023-08-21T14:23:26;6.10;;;4.40;;
5147;SDS011;2592;48.140;7.614;2023-08-21T14:25:53;9.60;;;3.97;;
5147;SDS011;2592;48.140;7.614;2023-08-21T14:28:19;6.47;;;4.33;;
5147;SDS011;2592;48.140;7.614;2023-08-21T14:30:47;9.20;;;3.93;;
5147;SDS011;2592;48.140;7.614;2023-08-21T14:33:13;5.20;;;3.60;;
5147;SDS011;2592;48.140;7.614;2023-08-21T14:35:40;9.60;;;3.67;;
5147;SDS011;2592;48.140;7.614;2023-08-21T14:38:06;6.00;;;4.50;;
5147;SDS011;2592;48.140;7.614;2023-08-21T14:40:33;10.80;;;4.77;;
5147;SDS011;2592;48.140;7.614;2023-08-21T14:42:59;9.20;;;6.77;;
5147;SDS011;2592;48.140;7.614;2023-08-21T14:45:25;7.47;;;5.20;;
5147;SDS011;2592;48.140;7.614;2023-08-21T14:47:53;6.17;;;4.50;;
5147;SDS011;2592;48.140;7.614;2023-08-21T14:50:20;10.30;;;4.73;;
5147;SDS011;2592;48.140;7.614;2023-08-21T14:52:46;7.90;;;7.10;;
5147;SDS011;2592;48.140;7.614;2023-08-21T14:55:14;13.10;;;10.00;;
5147;SDS011;2592;48.140;7.614;2023-08-21T14:57:40;10.90;;;5.80;;
5147;SDS011;2592;48.140;7.614;2023-08-21T15:00:07;6.10;;;4.30;;
5147;SDS011;2592;48.140;7.614;2023-08-21T15:02:34;9.97;;;6.23;;
5147;SDS011;2592;48.140;7.614;2023-08-21T15:05:02;8.00;;;4.23;;
5147;SDS011;2592;48.140;7.614;2023-08-21T15:07:30;9.77;;;4.30;;
5147;SDS011;2592;48.140;7.614;2023-08-21T15:09:57;9.43;;;5.77;;